createdAt,value
2019-05-13T00:00:03.798Z,7.60
2019-05-13T00:00:50.106Z,7.60
2019-05-13T00:01:46.242Z,7.60
2019-05-13T00:02:34.433Z,7.60
2019-05-13T00:03:19.890Z,7.50
2019-05-13T00:04:05.609Z,7.50
2019-05-13T00:04:53.252Z,7.50
2019-05-13T00:05:39.467Z,7.50
2019-05-13T00:06:25.383Z,7.50
2019-05-13T00:07:13.445Z,7.50
2019-05-13T00:07:59.545Z,7.50
2019-05-13T00:08:45.323Z,7.50
2019-05-13T00:09:33.986Z,7.50
2019-05-13T00:10:20.081Z,7.50
2019-05-13T00:11:05.833Z,7.40
2019-05-13T00:11:53.866Z,7.40
2019-05-13T00:12:39.511Z,7.40
2019-05-13T00:13:25.836Z,7.30
2019-05-13T00:14:13.433Z,7.30
2019-05-13T00:14:59.533Z,7.30
2019-05-13T00:15:45.259Z,7.30
2019-05-13T00:16:33.596Z,7.30
2019-05-13T00:17:19.511Z,7.30
2019-05-13T00:18:14.149Z,7.30
2019-05-13T00:19:00.548Z,7.30
2019-05-13T00:19:46.577Z,7.20
2019-05-13T00:20:33.728Z,7.30
2019-05-13T00:21:20.080Z,7.20
2019-05-13T00:22:05.702Z,7.20
2019-05-13T00:22:53.861Z,7.20
2019-05-13T00:23:39.811Z,7.10
2019-05-13T00:24:25.513Z,7.10
2019-05-13T00:25:11.504Z,7.10
2019-05-13T00:25:58.818Z,7.10
2019-05-13T00:26:44.680Z,7.10
2019-05-13T00:27:30.932Z,7.10
2019-05-13T00:28:17.764Z,7.00
2019-05-13T00:29:04.321Z,7.00
2019-05-13T00:29:50.276Z,7.00
2019-05-13T00:30:36.265Z,7.10
2019-05-13T00:31:24.172Z,7.10
2019-05-13T00:32:10.431Z,7.00
2019-05-13T00:33:00.902Z,7.00
2019-05-13T00:33:48.540Z,7.00
2019-05-13T00:34:34.794Z,7.00
2019-05-13T00:35:23.178Z,7.00
2019-05-13T00:36:09.123Z,7.00
2019-05-13T00:37:07.855Z,6.90
2019-05-13T00:37:44.240Z,6.90
2019-05-13T00:38:30.568Z,6.90
2019-05-13T00:39:17.079Z,6.80
2019-05-13T00:40:04.135Z,6.80
2019-05-13T00:40:50.513Z,6.80
2019-05-13T00:41:36.525Z,6.70
2019-05-13T00:42:24.544Z,6.70
2019-05-13T00:43:14.287Z,6.70
2019-05-13T00:44:00.516Z,6.70
2019-05-13T00:44:47.959Z,6.70
2019-05-13T00:45:34.324Z,6.70
2019-05-13T00:46:20.861Z,6.60
2019-05-13T00:47:07.696Z,6.70
2019-05-13T00:47:53.813Z,6.70
2019-05-13T00:48:40.275Z,6.70
2019-05-13T00:49:26.265Z,6.70
2019-05-13T00:50:14.481Z,6.60
2019-05-13T00:51:00.468Z,6.60
2019-05-13T00:51:46.168Z,6.50
2019-05-13T00:52:33.938Z,6.40
2019-05-13T00:53:20.119Z,6.40
2019-05-13T00:54:08.017Z,6.40
2019-05-13T00:54:54.378Z,6.50
2019-05-13T00:55:40.303Z,6.40
2019-05-13T00:56:26.635Z,6.40
2019-05-13T00:57:13.377Z,6.40
2019-05-13T00:57:59.656Z,6.30
2019-05-13T00:58:45.352Z,6.30
2019-05-13T00:59:33.649Z,6.20
2019-05-13T01:00:19.441Z,6.20
2019-05-13T01:01:05.557Z,6.20
2019-05-13T01:01:53.330Z,6.20
2019-05-13T01:02:39.576Z,6.20
2019-05-13T01:03:28.434Z,6.20
2019-05-13T01:04:15.785Z,6.20
2019-05-13T01:05:04.139Z,6.10
2019-05-13T01:05:49.648Z,6.10
2019-05-13T01:06:35.714Z,6.00
2019-05-13T01:07:28.761Z,6.00
2019-05-13T01:08:20.307Z,6.00
2019-05-13T01:09:07.576Z,6.00
2019-05-13T01:09:57.271Z,6.00
2019-05-13T01:10:45.879Z,6.00
2019-05-13T01:11:34.256Z,6.00
2019-05-13T01:12:19.488Z,6.00
2019-05-13T01:13:05.515Z,6.00
2019-05-13T01:13:53.574Z,6.00
2019-05-13T01:14:39.243Z,6.00
2019-05-13T01:15:25.240Z,6.00
2019-05-13T01:16:13.897Z,6.00
2019-05-13T01:16:59.090Z,6.00
2019-05-13T01:17:45.373Z,5.90
2019-05-13T01:18:33.823Z,5.90
2019-05-13T01:19:19.693Z,5.90
2019-05-13T01:20:06.311Z,5.90
2019-05-13T01:20:53.840Z,5.90
2019-05-13T01:21:40.150Z,5.90
2019-05-13T01:22:26.845Z,5.90
2019-05-13T01:23:14.089Z,5.90
2019-05-13T01:24:00.628Z,5.80
2019-05-13T01:24:46.368Z,5.80
2019-05-13T01:25:33.622Z,5.80
2019-05-13T01:26:20.425Z,5.80
2019-05-13T01:27:06.840Z,5.90
2019-05-13T01:27:56.113Z,5.90
2019-05-13T01:28:43.761Z,5.80
2019-05-13T01:29:30.274Z,5.80
2019-05-13T01:30:16.358Z,5.80
2019-05-13T01:31:04.146Z,5.80
2019-05-13T01:31:50.542Z,5.80
2019-05-13T01:32:36.461Z,5.80
2019-05-13T01:33:23.577Z,5.70
2019-05-13T01:34:11.378Z,5.80
2019-05-13T01:34:57.397Z,5.80
2019-05-13T01:35:44.482Z,5.80
2019-05-13T01:36:30.843Z,5.80
2019-05-13T01:37:17.027Z,5.70
2019-05-13T01:38:04.607Z,5.70
2019-05-13T01:38:50.625Z,5.70
2019-05-13T01:39:36.823Z,5.70
2019-05-13T01:40:23.963Z,5.70
2019-05-13T01:41:10.123Z,5.60
2019-05-13T01:41:57.727Z,5.70
2019-05-13T01:42:44.556Z,5.70
2019-05-13T01:43:30.779Z,5.70
2019-05-13T01:44:17.107Z,5.70
2019-05-13T01:45:04.634Z,5.70
2019-05-13T01:45:50.736Z,5.60
2019-05-13T01:46:36.480Z,5.60
2019-05-13T01:47:24.048Z,5.50
2019-05-13T01:48:09.943Z,5.60
2019-05-13T01:48:55.663Z,5.60
2019-05-13T01:49:43.884Z,5.60
2019-05-13T01:50:29.558Z,5.60
2019-05-13T01:51:15.238Z,5.60
2019-05-13T01:52:03.488Z,5.60
2019-05-13T01:52:48.627Z,5.60
2019-05-13T01:53:34.247Z,5.60
2019-05-13T01:54:19.861Z,5.60
2019-05-13T01:55:06.498Z,5.50
2019-05-13T01:55:53.317Z,5.50
2019-05-13T01:56:39.105Z,5.50
2019-05-13T01:57:24.852Z,5.50
2019-05-13T01:58:11.039Z,5.50
2019-05-13T01:58:56.692Z,5.40
2019-05-13T01:59:43.542Z,5.50
2019-05-13T02:00:29.492Z,5.40
2019-05-13T02:01:15.724Z,5.40
2019-05-13T02:02:03.470Z,5.40
2019-05-13T02:02:49.154Z,5.50
2019-05-13T02:03:34.975Z,5.50
2019-05-13T02:04:20.688Z,5.40
2019-05-13T02:05:06.696Z,5.40
2019-05-13T02:05:54.431Z,5.40
2019-05-13T02:06:40.244Z,5.40
2019-05-13T02:07:26.490Z,5.40
2019-05-13T02:08:14.340Z,5.40
2019-05-13T02:09:00.469Z,5.40
2019-05-13T02:09:46.227Z,5.40
2019-05-13T02:10:50.081Z,5.40
2019-05-13T02:11:35.811Z,5.30
2019-05-13T02:12:24.099Z,5.30
2019-05-13T02:13:09.784Z,5.30
2019-05-13T02:13:55.417Z,5.40
2019-05-13T02:14:41.169Z,5.30
2019-05-13T02:15:27.325Z,5.30
2019-05-13T02:16:14.504Z,5.30
2019-05-13T02:17:01.074Z,5.30
2019-05-13T02:17:46.736Z,5.30
2019-05-13T02:18:34.133Z,5.30
2019-05-13T02:19:20.626Z,5.20
2019-05-13T02:20:07.035Z,5.20
2019-05-13T02:20:55.366Z,5.20
2019-05-13T02:21:40.809Z,5.20
2019-05-13T02:22:26.557Z,5.10
2019-05-13T02:23:14.558Z,5.10
2019-05-13T02:24:01.009Z,5.20
2019-05-13T02:24:47.576Z,5.20
2019-05-13T02:25:37.911Z,5.10
2019-05-13T02:26:24.154Z,5.00
2019-05-13T02:27:10.362Z,5.10
2019-05-13T02:27:56.443Z,5.10
2019-05-13T02:28:43.620Z,5.10
2019-05-13T02:29:30.010Z,5.00
2019-05-13T02:30:16.743Z,5.00
2019-05-13T02:31:02.973Z,5.00
2019-05-13T02:31:53.132Z,5.00
2019-05-13T02:32:37.323Z,5.00
2019-05-13T02:33:23.313Z,5.10
2019-05-13T02:34:13.368Z,5.00
2019-05-13T02:34:57.857Z,5.00
2019-05-13T02:35:44.218Z,5.00
2019-05-13T02:36:33.011Z,5.00
2019-05-13T02:37:18.739Z,5.00
2019-05-13T02:38:19.628Z,4.90
2019-05-13T02:38:53.317Z,4.90
2019-05-13T02:39:42.559Z,4.80
2019-05-13T02:40:27.637Z,4.80
2019-05-13T02:41:13.747Z,4.90
2019-05-13T02:42:03.029Z,4.90
2019-05-13T02:42:48.013Z,5.00
2019-05-13T02:43:34.359Z,4.90
2019-05-13T02:44:22.607Z,4.90
2019-05-13T02:45:08.444Z,4.90
2019-05-13T02:45:54.572Z,4.90
2019-05-13T02:46:53.306Z,4.90
2019-05-13T02:47:39.477Z,4.90
2019-05-13T02:48:25.600Z,4.80
2019-05-13T02:49:12.173Z,4.80
2019-05-13T02:50:03.910Z,4.80
2019-05-13T02:50:46.216Z,4.80
2019-05-13T02:51:32.867Z,4.70
2019-05-13T02:52:22.254Z,4.80
2019-05-13T02:53:06.938Z,4.80
2019-05-13T02:53:53.124Z,4.80
2019-05-13T02:54:42.453Z,4.70
2019-05-13T02:55:26.896Z,4.80
2019-05-13T02:56:13.394Z,4.70
2019-05-13T02:56:59.361Z,4.80
2019-05-13T02:57:45.193Z,4.80
2019-05-13T02:58:33.412Z,4.70
2019-05-13T02:59:22.437Z,4.80
2019-05-13T03:00:08.719Z,4.70
2019-05-13T03:00:54.987Z,4.70
2019-05-13T03:01:43.177Z,4.70
2019-05-13T03:02:32.583Z,4.70
2019-05-13T03:03:22.683Z,4.70
2019-05-13T03:04:12.874Z,4.60
2019-05-13T03:04:57.680Z,4.70
2019-05-13T03:05:43.985Z,4.60
2019-05-13T03:06:33.197Z,4.60
2019-05-13T03:07:17.376Z,4.60
2019-05-13T03:08:03.684Z,4.50
2019-05-13T03:08:53.756Z,4.50
2019-05-13T03:09:37.366Z,4.50
2019-05-13T03:10:23.082Z,4.50
2019-05-13T03:11:12.357Z,4.60
2019-05-13T03:11:56.643Z,4.60
2019-05-13T03:12:43.167Z,4.60
2019-05-13T03:13:32.298Z,4.60
2019-05-13T03:14:23.516Z,4.50
2019-05-13T03:15:07.462Z,4.50
2019-05-13T03:16:23.092Z,4.40
2019-05-13T03:17:16.433Z,4.40
2019-05-13T03:18:06.565Z,4.30
2019-05-13T03:18:52.630Z,4.30
2019-05-13T03:19:38.478Z,4.30
2019-05-13T03:20:24.562Z,4.30
2019-05-13T03:21:12.763Z,4.40
2019-05-13T03:21:58.957Z,4.30
2019-05-13T03:22:45.060Z,4.40
2019-05-13T03:23:32.748Z,4.30
2019-05-13T03:24:22.979Z,4.30
2019-05-13T03:25:09.314Z,4.30
2019-05-13T03:25:56.227Z,4.30
2019-05-13T03:26:42.764Z,4.40
2019-05-13T03:27:28.637Z,4.40
2019-05-13T03:28:14.316Z,4.40
2019-05-13T03:29:02.835Z,4.40
2019-05-13T03:30:05.350Z,4.30
2019-05-13T03:30:56.536Z,4.30
2019-05-13T03:31:45.583Z,4.30
2019-05-13T03:32:35.179Z,4.30
2019-05-13T03:33:21.869Z,4.30
2019-05-13T03:34:07.459Z,4.30
2019-05-13T03:34:56.254Z,4.40
2019-05-13T03:35:45.706Z,4.40
2019-05-13T03:36:29.046Z,4.40
2019-05-13T03:37:16.250Z,4.40
2019-05-13T03:38:03.546Z,4.40
2019-05-13T03:39:01.365Z,4.30
2019-05-13T03:39:43.045Z,4.30
2019-05-13T03:40:27.922Z,4.30
2019-05-13T03:41:15.875Z,4.30
2019-05-13T03:42:03.090Z,4.30
2019-05-13T03:42:53.407Z,4.30
2019-05-13T03:43:38.957Z,4.30
2019-05-13T03:44:27.534Z,4.40
2019-05-13T03:45:13.811Z,4.30
2019-05-13T03:46:03.404Z,4.30
2019-05-13T03:46:52.915Z,4.30
2019-05-13T03:47:42.145Z,4.30
2019-05-13T03:48:33.273Z,4.40
2019-05-13T03:49:23.307Z,4.40
2019-05-13T03:50:08.960Z,4.40
2019-05-13T03:50:55.146Z,4.40
2019-05-13T03:51:42.846Z,4.40
2019-05-13T03:52:28.955Z,4.50
2019-05-13T03:53:17.681Z,4.50
2019-05-13T03:54:03.741Z,4.50
2019-05-13T03:54:52.053Z,4.40
2019-05-13T03:55:37.628Z,4.50
2019-05-13T03:56:24.318Z,4.50
2019-05-13T03:57:12.642Z,4.40
2019-05-13T03:57:58.252Z,4.40
2019-05-13T03:58:44.245Z,4.40
2019-05-13T03:59:33.253Z,4.40
2019-05-13T04:00:23.168Z,4.40
2019-05-13T04:01:07.860Z,4.40
2019-05-13T04:01:54.758Z,4.40
2019-05-13T04:02:42.913Z,4.40
2019-05-13T04:03:29.040Z,4.50
2019-05-13T04:04:15.235Z,4.50
2019-05-13T04:05:04.170Z,4.50
2019-05-13T04:05:52.329Z,4.50
2019-05-13T04:06:36.697Z,4.50
2019-05-13T04:07:23.755Z,4.50
2019-05-13T04:08:12.967Z,4.50
2019-05-13T04:09:17.185Z,4.60
2019-05-13T04:09:52.337Z,4.50
2019-05-13T04:10:37.363Z,4.60
2019-05-13T04:11:23.705Z,4.50
2019-05-13T04:12:13.142Z,4.60
2019-05-13T04:12:58.143Z,4.60
2019-05-13T04:13:44.307Z,4.60
2019-05-13T04:14:33.475Z,4.60
2019-05-13T04:15:19.211Z,4.60
2019-05-13T04:16:05.311Z,4.60
2019-05-13T04:16:53.166Z,4.60
2019-05-13T04:17:42.558Z,4.70
2019-05-13T04:18:27.250Z,4.70
2019-05-13T04:19:12.985Z,4.80
2019-05-13T04:20:02.373Z,4.80
2019-05-13T04:20:47.476Z,4.80
2019-05-13T04:21:34.087Z,4.80
2019-05-13T04:22:23.085Z,4.90
2019-05-13T04:23:12.572Z,4.90
2019-05-13T04:23:57.736Z,4.90
2019-05-13T04:24:44.098Z,4.90
2019-05-13T04:25:32.201Z,4.90
2019-05-13T04:26:18.064Z,4.90
2019-05-13T04:27:03.873Z,4.90
2019-05-13T04:27:53.036Z,5.00
2019-05-13T04:28:43.077Z,4.90
2019-05-13T04:29:27.630Z,5.00
2019-05-13T04:30:13.728Z,4.90
2019-05-13T04:31:03.034Z,4.90
2019-05-13T04:31:47.747Z,4.90
2019-05-13T04:32:33.954Z,4.90
2019-05-13T04:33:22.998Z,5.00
2019-05-13T04:34:07.925Z,5.00
2019-05-13T04:34:53.993Z,5.00
2019-05-13T04:35:42.560Z,5.10
2019-05-13T04:36:27.802Z,5.10
2019-05-13T04:37:14.116Z,5.10
2019-05-13T04:38:03.039Z,5.10
2019-05-13T04:38:47.976Z,5.10
2019-05-13T04:39:45.228Z,5.10
2019-05-13T04:40:23.181Z,5.10
2019-05-13T04:41:12.015Z,5.20
2019-05-13T04:41:57.214Z,5.20
2019-05-13T04:42:43.371Z,5.20
2019-05-13T04:43:33.649Z,5.20
2019-05-13T04:44:17.222Z,5.20
2019-05-13T04:45:03.729Z,5.30
2019-05-13T04:45:52.415Z,5.30
2019-05-13T04:46:37.859Z,5.40
2019-05-13T04:47:27.067Z,5.40
2019-05-13T04:48:14.232Z,5.40
2019-05-13T04:49:02.188Z,5.40
2019-05-13T04:49:48.918Z,5.50
2019-05-13T04:50:34.864Z,5.50
2019-05-13T04:51:22.831Z,5.50
2019-05-13T04:52:09.379Z,5.50
2019-05-13T04:52:55.364Z,5.50
2019-05-13T04:53:42.640Z,5.50
2019-05-13T04:54:29.169Z,5.50
2019-05-13T04:55:15.127Z,5.50
2019-05-13T04:56:03.198Z,5.50
2019-05-13T04:56:52.142Z,5.60
2019-05-13T04:57:37.769Z,5.60
2019-05-13T04:58:32.260Z,5.60
2019-05-13T04:59:19.095Z,5.60
2019-05-13T05:00:07.101Z,5.60
2019-05-13T05:01:40.217Z,5.70
2019-05-13T05:03:03.520Z,5.70
2019-05-13T05:04:03.132Z,5.80
2019-05-13T05:05:03.441Z,5.80
2019-05-13T05:06:18.759Z,5.80
2019-05-13T05:07:28.492Z,5.90
2019-05-13T05:08:36.229Z,5.90
2019-05-13T05:11:23.593Z,6.00
2019-05-13T05:12:36.889Z,6.00
2019-05-13T05:14:04.344Z,6.10
2019-05-13T05:15:32.295Z,6.00
2019-05-13T05:16:44.747Z,6.10
2019-05-13T05:17:57.158Z,6.10
2019-05-13T05:19:12.184Z,6.20
2019-05-13T05:20:05.121Z,6.20
2019-05-13T05:21:01.482Z,6.20
2019-05-13T05:22:05.928Z,6.20
2019-05-13T05:23:33.102Z,6.30
2019-05-13T05:25:11.559Z,6.30
2019-05-13T05:26:33.440Z,6.40
2019-05-13T05:28:07.995Z,6.30
2019-05-13T05:29:11.254Z,6.40
2019-05-13T05:30:18.691Z,6.50
2019-05-13T05:31:19.239Z,6.50
2019-05-13T05:32:31.885Z,6.50
2019-05-13T05:33:53.734Z,6.60
2019-05-13T05:35:16.160Z,6.60
2019-05-13T05:36:23.468Z,6.70
2019-05-13T05:37:22.300Z,6.70
2019-05-13T05:38:43.534Z,6.80
2019-05-13T05:39:31.583Z,6.80
2019-05-13T05:40:28.953Z,6.90
2019-05-13T05:41:12.926Z,6.90
2019-05-13T05:42:02.015Z,6.90
2019-05-13T05:42:49.103Z,7.00
2019-05-13T05:43:44.607Z,7.10
2019-05-13T05:44:32.104Z,7.10
2019-05-13T05:45:17.846Z,7.00
2019-05-13T05:46:05.596Z,7.10
2019-05-13T05:46:53.720Z,7.20
2019-05-13T05:47:43.005Z,7.20
2019-05-13T05:48:31.544Z,7.30
2019-05-13T05:49:23.961Z,7.40
2019-05-13T05:50:12.150Z,7.40
2019-05-13T05:51:02.108Z,7.50
2019-05-13T05:51:51.530Z,7.50
2019-05-13T05:52:38.318Z,7.60
2019-05-13T05:53:27.546Z,7.60
2019-05-13T05:54:15.433Z,7.60
2019-05-13T05:55:04.814Z,7.70
2019-05-13T05:55:52.803Z,7.70
2019-05-13T05:56:41.490Z,7.70
2019-05-13T05:57:31.431Z,7.80
2019-05-13T05:58:23.353Z,7.80
2019-05-13T05:59:12.299Z,7.90
2019-05-13T06:00:02.129Z,7.90
2019-05-13T06:00:51.944Z,8.00
2019-05-13T06:01:38.411Z,8.00
2019-05-13T06:02:26.507Z,8.10
2019-05-13T06:03:13.846Z,8.20
2019-05-13T06:04:01.559Z,8.20
2019-05-13T06:04:51.426Z,8.20
2019-05-13T06:05:36.531Z,8.20
2019-05-13T06:06:22.907Z,8.30
2019-05-13T06:07:11.452Z,8.30
2019-05-13T06:07:57.044Z,8.30
2019-05-13T06:08:43.143Z,8.40
2019-05-13T06:09:29.139Z,8.50
2019-05-13T06:10:15.669Z,8.50
2019-05-13T06:11:02.428Z,8.50
2019-05-13T06:11:48.628Z,8.50
2019-05-13T06:12:35.583Z,8.60
2019-05-13T06:13:21.698Z,8.60
2019-05-13T06:14:07.674Z,8.60
2019-05-13T06:14:53.968Z,8.60
2019-05-13T06:15:42.060Z,8.60
2019-05-13T06:16:27.839Z,8.60
2019-05-13T06:17:13.655Z,8.70
2019-05-13T06:17:59.370Z,8.70
2019-05-13T06:18:45.107Z,8.70
2019-05-13T06:19:32.002Z,8.70
2019-05-13T06:20:18.171Z,8.80
2019-05-13T06:21:04.149Z,8.80
2019-05-13T06:21:51.347Z,8.90
2019-05-13T06:22:37.819Z,8.90
2019-05-13T06:23:23.831Z,8.90
2019-05-13T06:24:11.631Z,8.90
2019-05-13T06:24:57.263Z,9.00
2019-05-13T06:25:43.020Z,9.10
2019-05-13T06:26:31.350Z,9.10
2019-05-13T06:27:17.367Z,9.10
2019-05-13T06:28:03.684Z,9.20
2019-05-13T06:28:51.907Z,9.20
2019-05-13T06:29:37.361Z,9.20
2019-05-13T06:30:23.399Z,9.30
2019-05-13T06:31:12.369Z,9.30
2019-05-13T06:32:15.168Z,9.40
2019-05-13T06:32:47.522Z,9.40
2019-05-13T06:33:36.147Z,9.40
2019-05-13T06:34:22.924Z,9.40
2019-05-13T06:35:11.509Z,9.50
2019-05-13T06:35:57.986Z,9.60
2019-05-13T06:36:44.221Z,9.60
2019-05-13T06:37:32.211Z,9.70
2019-05-13T06:38:18.537Z,9.80
2019-05-13T06:39:06.722Z,9.80
2019-05-13T06:39:52.927Z,9.80
2019-05-13T06:40:38.775Z,9.80
2019-05-13T06:41:24.811Z,9.90
2019-05-13T06:42:11.789Z,9.90
2019-05-13T06:42:58.526Z,10.00
2019-05-13T06:43:47.618Z,10.00
2019-05-13T06:44:35.014Z,10.10
2019-05-13T06:45:21.576Z,10.10
2019-05-13T06:46:07.736Z,10.10
2019-05-13T06:46:53.627Z,10.30
2019-05-13T06:47:41.313Z,10.20
2019-05-13T06:48:27.215Z,10.30
2019-05-13T06:49:13.010Z,10.30
2019-05-13T06:49:59.355Z,10.20
2019-05-13T06:50:45.762Z,10.20
2019-05-13T06:51:32.273Z,10.30
2019-05-13T06:52:21.219Z,10.40
2019-05-13T06:53:08.495Z,10.60
2019-05-13T06:53:55.029Z,10.80
2019-05-13T06:54:41.922Z,11.10
2019-05-13T06:55:28.117Z,11.40
2019-05-13T06:56:14.187Z,11.70
2019-05-13T06:57:04.325Z,12.00
2019-05-13T06:57:51.719Z,12.60
2019-05-13T06:58:37.818Z,13.70
2019-05-13T06:59:23.907Z,14.90
2019-05-13T07:00:11.994Z,16.00
2019-05-13T07:00:58.749Z,16.70
2019-05-13T07:01:45.003Z,17.40
2019-05-13T07:02:32.075Z,18.10
2019-05-13T07:03:21.951Z,18.30
2019-05-13T07:04:08.306Z,18.70
2019-05-13T07:04:54.466Z,19.30
2019-05-13T07:05:42.339Z,18.80
2019-05-13T07:06:28.674Z,19.10
2019-05-13T07:07:17.369Z,19.60
2019-05-13T07:08:02.524Z,19.90
2019-05-13T07:08:51.885Z,19.90
2019-05-13T07:09:37.495Z,20.20
2019-05-13T07:10:23.226Z,20.00
2019-05-13T07:11:18.631Z,20.00
2019-05-13T07:11:57.126Z,19.90
2019-05-13T07:12:45.989Z,19.70
2019-05-13T07:13:32.374Z,19.70
2019-05-13T07:14:18.447Z,20.10
2019-05-13T07:15:04.783Z,20.50
2019-05-13T07:15:52.166Z,20.40
2019-05-13T07:16:38.512Z,20.40
2019-05-13T07:17:24.256Z,20.10
2019-05-13T07:18:11.716Z,20.40
2019-05-13T07:18:57.864Z,20.20
2019-05-13T07:19:43.723Z,20.20
2019-05-13T07:20:32.214Z,20.30
2019-05-13T07:21:17.577Z,20.40
2019-05-13T07:22:03.398Z,21.00
2019-05-13T07:22:49.478Z,21.90
2019-05-13T07:23:35.309Z,22.90
2019-05-13T07:24:24.136Z,23.40
2019-05-13T07:25:11.454Z,23.80
2019-05-13T07:26:01.697Z,23.20
2019-05-13T07:26:48.022Z,21.80
2019-05-13T07:27:34.107Z,21.60
2019-05-13T07:28:21.943Z,21.60
2019-05-13T07:29:12.670Z,21.80
2019-05-13T07:29:58.203Z,22.10
2019-05-13T07:30:47.278Z,21.90
2019-05-13T07:31:33.416Z,21.00
2019-05-13T07:32:22.092Z,21.50
2019-05-13T07:33:08.767Z,21.50
2019-05-13T07:33:55.102Z,22.20
2019-05-13T07:34:44.369Z,22.50
2019-05-13T07:35:35.882Z,23.70
2019-05-13T07:36:17.958Z,24.30
2019-05-13T07:37:03.976Z,24.30
2019-05-13T07:37:51.745Z,24.70
2019-05-13T07:38:38.147Z,24.90
2019-05-13T07:39:24.469Z,24.90
2019-05-13T07:40:11.639Z,24.40
2019-05-13T07:41:04.543Z,24.60
2019-05-13T07:41:52.091Z,24.90
2019-05-13T07:42:37.997Z,24.50
2019-05-13T07:43:23.802Z,24.60
2019-05-13T07:44:11.759Z,25.20
2019-05-13T07:44:58.234Z,25.50
2019-05-13T07:45:44.227Z,25.10
2019-05-13T07:46:32.269Z,24.80
2019-05-13T07:47:18.433Z,24.60
2019-05-13T07:48:19.496Z,24.80
2019-05-13T07:48:53.302Z,25.50
2019-05-13T07:49:39.082Z,25.70
2019-05-13T07:50:25.466Z,26.10
2019-05-13T07:51:12.053Z,26.60
2019-05-13T07:51:58.404Z,26.80
2019-05-13T07:52:44.862Z,26.30
2019-05-13T07:53:34.068Z,26.30
2019-05-13T07:54:22.028Z,26.40
2019-05-13T07:55:08.215Z,25.80
2019-05-13T07:55:54.409Z,25.70
2019-05-13T07:56:42.589Z,26.50
2019-05-13T07:57:31.843Z,27.20
2019-05-13T07:58:18.347Z,27.50
2019-05-13T07:59:04.556Z,27.20
2019-05-13T07:59:52.338Z,26.60
2019-05-13T08:00:41.789Z,26.40
2019-05-13T08:01:27.621Z,26.90
2019-05-13T08:02:16.751Z,27.30
2019-05-13T08:03:02.985Z,27.50
2019-05-13T08:03:51.447Z,28.20
2019-05-13T08:04:42.059Z,28.40
2019-05-13T08:05:27.562Z,28.80
2019-05-13T08:06:13.766Z,28.70
2019-05-13T08:07:01.873Z,29.00
2019-05-13T08:07:47.778Z,29.20
2019-05-13T08:08:34.327Z,28.60
2019-05-13T08:09:21.939Z,28.90
2019-05-13T08:10:11.415Z,29.50
2019-05-13T08:10:56.734Z,29.80
2019-05-13T08:11:59.938Z,29.90
2019-05-13T08:12:31.942Z,29.40
2019-05-13T08:13:17.944Z,29.60
2019-05-13T08:14:03.865Z,29.30
2019-05-13T08:14:52.145Z,30.00
2019-05-13T08:15:37.511Z,29.30
2019-05-13T08:16:23.247Z,29.50
2019-05-13T08:17:11.492Z,29.60
2019-05-13T08:17:56.652Z,29.90
2019-05-13T08:18:43.852Z,30.10
2019-05-13T08:19:33.243Z,30.50
2019-05-13T08:20:19.011Z,30.90
2019-05-13T08:21:04.904Z,31.00
2019-05-13T08:21:51.346Z,31.00
2019-05-13T08:22:37.352Z,31.30
2019-05-13T08:23:22.961Z,31.30
2019-05-13T08:24:08.625Z,31.20
2019-05-13T08:24:54.610Z,30.50
2019-05-13T08:25:43.563Z,30.60
2019-05-13T08:26:29.228Z,31.10
2019-05-13T08:27:15.365Z,31.40
2019-05-13T08:28:02.117Z,31.50
2019-05-13T08:29:00.208Z,31.30
2019-05-13T08:29:38.929Z,31.50
2019-05-13T08:30:25.145Z,31.70
2019-05-13T08:31:12.075Z,31.50
2019-05-13T08:31:58.220Z,31.40
2019-05-13T08:32:44.365Z,31.30
2019-05-13T08:33:32.056Z,31.00
2019-05-13T08:34:18.408Z,31.30
2019-05-13T08:35:08.968Z,30.20
2019-05-13T08:35:58.510Z,30.50
2019-05-13T08:36:42.736Z,30.80
2019-05-13T08:37:28.182Z,30.90
2019-05-13T08:38:13.805Z,31.20
2019-05-13T08:39:02.378Z,31.50
2019-05-13T08:39:47.219Z,31.40
2019-05-13T08:40:32.867Z,29.60
2019-05-13T08:41:19.439Z,30.20
2019-05-13T08:42:15.023Z,30.20
2019-05-13T08:42:54.816Z,30.00
2019-05-13T08:43:41.903Z,29.70
2019-05-13T08:44:28.113Z,29.70
2019-05-13T08:45:14.438Z,29.50
2019-05-13T08:46:01.939Z,29.50
2019-05-13T08:46:48.307Z,29.80
2019-05-13T08:47:34.473Z,30.60
2019-05-13T08:48:22.205Z,30.80
2019-05-13T08:49:11.935Z,30.50
2019-05-13T08:50:03.341Z,30.60
2019-05-13T08:50:46.169Z,30.90
2019-05-13T08:51:34.709Z,30.60
2019-05-13T08:52:21.762Z,30.80
2019-05-13T08:53:07.225Z,31.50
2019-05-13T08:53:52.912Z,30.90
2019-05-13T08:54:38.593Z,31.30
2019-05-13T08:55:24.264Z,31.50
2019-05-13T08:56:12.216Z,31.10
2019-05-13T08:57:02.954Z,29.90
2019-05-13T08:57:48.335Z,30.50
2019-05-13T08:58:34.050Z,31.00
2019-05-13T08:59:22.065Z,31.50
2019-05-13T09:00:13.715Z,31.10
2019-05-13T09:01:02.011Z,31.30
2019-05-13T09:01:47.584Z,30.90
2019-05-13T09:02:33.756Z,31.10
2019-05-13T09:03:21.578Z,30.90
2019-05-13T09:04:08.025Z,30.80
2019-05-13T09:04:54.090Z,30.50
2019-05-13T09:05:41.405Z,30.60
2019-05-13T09:06:27.622Z,30.60
2019-05-13T09:07:13.946Z,29.70
2019-05-13T09:08:01.321Z,29.10
2019-05-13T09:08:47.457Z,29.10
2019-05-13T09:09:33.422Z,28.90
2019-05-13T09:10:21.453Z,28.90
2019-05-13T09:11:07.592Z,28.90
2019-05-13T09:11:53.442Z,29.80
2019-05-13T09:12:41.038Z,30.10
2019-05-13T09:13:27.625Z,30.40
2019-05-13T09:14:14.020Z,30.10
2019-05-13T09:14:59.759Z,29.60
2019-05-13T09:15:46.112Z,29.20
2019-05-13T09:16:32.133Z,29.40
2019-05-13T09:17:18.286Z,29.50
2019-05-13T09:18:03.933Z,29.60
2019-05-13T09:18:52.019Z,30.00
2019-05-13T09:19:37.287Z,30.20
2019-05-13T09:20:22.910Z,30.70
2019-05-13T09:21:08.901Z,30.80
2019-05-13T09:21:54.631Z,30.80
2019-05-13T09:22:41.365Z,31.00
2019-05-13T09:23:27.389Z,31.10
2019-05-13T09:24:25.316Z,31.40
2019-05-13T09:25:02.070Z,31.20
2019-05-13T09:25:48.491Z,30.20
2019-05-13T09:26:34.329Z,30.70
2019-05-13T09:27:22.541Z,30.90
2019-05-13T09:28:08.758Z,31.30
2019-05-13T09:28:55.063Z,30.60
2019-05-13T09:29:42.777Z,30.70
2019-05-13T09:30:31.482Z,30.90
2019-05-13T09:31:16.900Z,31.10
2019-05-13T09:32:03.745Z,31.10
2019-05-13T09:32:51.427Z,31.50
2019-05-13T09:33:37.779Z,31.60
2019-05-13T09:34:23.874Z,31.60
2019-05-13T09:35:12.016Z,31.20
2019-05-13T09:35:57.513Z,31.10
2019-05-13T09:36:43.255Z,30.70
2019-05-13T09:37:31.578Z,30.90
2019-05-13T09:38:16.714Z,31.10
2019-05-13T09:39:02.600Z,31.10
2019-05-13T09:39:48.598Z,31.50
2019-05-13T09:40:34.431Z,31.50
2019-05-13T09:41:21.489Z,31.60
2019-05-13T09:42:07.862Z,31.70
2019-05-13T09:42:55.340Z,31.30
2019-05-13T09:43:41.994Z,30.60
2019-05-13T09:44:28.189Z,30.00
2019-05-13T09:45:14.806Z,30.30
2019-05-13T09:46:01.717Z,30.50
2019-05-13T09:46:48.065Z,30.40
2019-05-13T09:47:34.068Z,29.80
2019-05-13T09:48:22.440Z,29.40
2019-05-13T09:49:16.137Z,29.60
2019-05-13T09:49:56.069Z,30.20
2019-05-13T09:50:42.544Z,30.60
2019-05-13T09:51:28.706Z,30.90
2019-05-13T09:52:14.752Z,31.00
2019-05-13T09:53:02.719Z,31.10
2019-05-13T09:53:48.472Z,31.30
2019-05-13T09:54:34.196Z,30.90
2019-05-13T09:55:26.306Z,30.80
2019-05-13T09:56:08.307Z,30.80
2019-05-13T09:56:54.013Z,30.60
2019-05-13T09:57:41.516Z,30.80
2019-05-13T09:58:33.148Z,30.80
2019-05-13T09:59:18.445Z,30.80
2019-05-13T10:00:05.103Z,30.80
2019-05-13T10:00:52.480Z,30.70
2019-05-13T10:01:42.265Z,30.90
2019-05-13T10:02:27.678Z,30.90
2019-05-13T10:03:14.258Z,30.90
2019-05-13T10:04:02.842Z,30.50
2019-05-13T10:04:48.024Z,30.60
2019-05-13T10:05:34.005Z,30.90
2019-05-13T10:06:24.588Z,31.00
2019-05-13T10:07:12.312Z,31.00
2019-05-13T10:07:58.415Z,31.00
2019-05-13T10:08:44.594Z,30.70
2019-05-13T10:09:32.546Z,31.20
2019-05-13T10:10:19.003Z,30.90
2019-05-13T10:11:06.059Z,30.70
2019-05-13T10:11:52.305Z,30.90
2019-05-13T10:12:38.111Z,30.50
2019-05-13T10:13:23.937Z,30.60
2019-05-13T10:14:11.625Z,30.50
2019-05-13T10:14:57.691Z,30.20
2019-05-13T10:15:47.967Z,30.30
2019-05-13T10:16:31.661Z,30.60
2019-05-13T10:17:17.894Z,30.30
2019-05-13T10:18:04.180Z,30.10
2019-05-13T10:18:52.447Z,30.30
2019-05-13T10:19:38.348Z,29.80
2019-05-13T10:20:45.713Z,30.10
2019-05-13T10:21:32.679Z,30.20
2019-05-13T10:22:18.650Z,30.40
2019-05-13T10:23:04.379Z,29.80
2019-05-13T10:23:50.858Z,29.90
2019-05-13T10:24:36.832Z,30.20
2019-05-13T10:25:23.081Z,30.30
2019-05-13T10:26:13.442Z,30.40
2019-05-13T10:26:57.990Z,30.20
2019-05-13T10:27:44.731Z,29.70
2019-05-13T10:28:32.037Z,29.80
2019-05-13T10:29:18.282Z,29.90
2019-05-13T10:30:06.620Z,30.00
2019-05-13T10:30:53.072Z,29.60
2019-05-13T10:31:41.819Z,29.40
2019-05-13T10:32:27.442Z,29.00
2019-05-13T10:33:13.804Z,28.30
2019-05-13T10:34:02.275Z,26.90
2019-05-13T10:34:48.814Z,26.10